Airfield :







YOU CAN JOIN US ON...

 
LOGIN :

Register | Disclaimer

   EN    FR    IT 

 









Legend :    VFR   Marginal VFR   IFR   Intensive IFR   Very Intensive IFR
Visi :
Ceiling :
>= 8 km
>= 3000ft
5 to 8 km
1000 to 3000 ft
1500m to 5 km
500 to 1000 ft
800 to 1500m
200 to 500 ft
< 800m
< 200 ft
Symbols :   Thunderstorms  Fog  Heavy snow  Heavy precipitations  Wind > 20 kt






- Airport Elevation : 49 ft


KOWD - Norwood Memorial

CURRENT METAR :
  • 090153Z AUTO VRB05KT 10SM CLR 02/M03 A3038 RMK AO2 SLP288 T00221033

EXPIRED METARs :
  • 090053Z 18006KT 10SM CLR 01/M05 A3040 RMK AO2 SLP294 T00111050
  • 082353Z 20005KT 10SM CLR 02/M05 A3042 RMK AO2 SLP301 T00171050 10028 20006 58009

TAF N/A



MET'MAP, your aeronautical weather chart ! - Copyright ORBIFLY December 2007 - Disclaimer

ORBIFLY MET'MAP TEAM :

Programming & Development : Alexandra Zaïnal
Concept & original design : Baudouin d'Aumeries
Assistance for programming : Marc-Olivier Méhu
Technical & hardware support : Manuel Goepfert

Contact : metmap@orbifly.com




SOURCES & CREDITS :

   NOAA